Latest Weather Observations for Cunderdin Airport

IDW60801

Issued at 1:35 am WST Saturday 22 November 2014 (issued every 30 minutes, with the page automatically refreshed every 10 minutes)

About weather observations | Map of weather stations | Latest weather observations for WA | Other Formats
Station Details ID: 010286 Name: CUNDERDIN AIRFIELD Lat: -31.62 Lon: 117.22 Height: 216.7 m
Data from the previous 72 hours. | See also: Recent months at Cunderdin Airport
Date/Time
WST
Temp
°C
App
Temp
°C
Dew
Point
Rel
Hum
%
Delta-T
°C
Wind Press
QNH
hPa
Press
MSL
hPa
Rain
since 9 am
mm
Dir
 
Spd
km/h
Gust
km/h
Spd
kts
Gust
kts
22/01:30am 13.3 11.6 9.9 80 1.8 W 9 11 5 6 1012.7 1011.9 0.0
22/01:00am 13.6 12.1 10.4 81 1.7 WNW 9 11 5 6 1012.8 1012.0 0.0
22/12:30am 12.9 11.3 10.3 84 1.4 NNW 9 11 5 6 1013.0 1012.2 0.0
22/12:00am 11.9 9.7 9.3 84 1.3 NW 11 13 6 7 1013.1 1012.3 0.0
 
Date/Time
WST
Temp
°C
App
Temp
°C
Dew
Point
Rel
Hum
%
Delta-T
°C
Wind Press
QNH
hPa
Press
MSL
hPa
Rain
since 9 am
mm
Dir
 
Spd
km/h
Gust
km/h
Spd
kts
Gust
kts
21/11:30pm 12.4 10.2 9.4 82 1.5 NW 11 13 6 7 1013.1 1012.3 0.0
21/11:00pm 13.3 11.1 9.5 78 2.0 W 11 13 6 7 1013.2 1012.4 0.0
21/10:30pm 14.4 12.0 10.0 75 2.3 W 13 15 7 8 1013.3 1012.5 0.0
21/10:00pm 15.0 12.6 10.0 72 2.6 W 13 17 7 9 1013.1 1012.3 0.0
21/09:30pm 16.1 12.7 10.6 70 3.0 W 19 24 10 13 1013.1 1012.3 0.0
21/09:00pm 16.6 13.2 10.7 68 3.2 W 19 22 10 12 1012.9 1012.1 0.0
21/08:30pm 17.4 14.1 10.8 65 3.6 W 19 22 10 12 1012.7 1011.9 0.0
21/08:00pm 18.0 14.1 10.9 63 3.9 W 22 28 12 15 1012.6 1011.8 0.0
21/07:30pm 18.5 14.2 10.6 60 4.3 W 24 30 13 16 1012.4 1011.6 0.0
21/07:00pm 19.4 14.6 10.4 56 4.9 WSW 26 35 14 19 1012.0 1011.2 0.0
21/06:30pm 20.7 15.7 10.8 53 5.5 WSW 28 35 15 19 1011.8 1011.0 0.0
21/06:00pm 21.5 15.6 10.6 50 6.0 WSW 32 43 17 23 1011.4 1010.6 0.0
21/05:30pm 22.7 16.7 10.8 47 6.6 W 33 43 18 23 1011.1 1010.3 0.0
21/05:00pm 23.6 17.4 11.3 46 7.0 WSW 35 46 19 25 1010.9 1010.1 0.0
21/04:30pm 24.1 17.8 11.1 44 7.3 W 35 50 19 27 1010.8 1010.0 0.0
21/04:00pm 24.8 18.5 11.0 42 7.8 WSW 35 46 19 25 1010.7 1009.9 0.0
21/03:30pm 25.4 19.8 11.6 42 7.9 WSW 32 46 17 25 1010.6 1009.8 0.0
21/03:00pm 24.6 18.3 11.2 43 7.6 W 35 46 19 25 1010.5 1009.7 0.0
21/02:30pm 26.2 20.7 11.9 41 8.3 W 32 43 17 23 1010.5 1009.7 0.0
21/02:17pm 26.0 20.8 11.7 41 8.2 W 30 50 16 27 1010.5 1009.7 0.0
21/02:00pm 25.9 20.4 12.0 42 8.0 W 32 43 17 23 1010.6 1009.8 0.0
21/01:30pm 26.1 22.1 12.9 44 7.8 W 26 44 14 24 1010.9 1010.1 0.0
21/01:00pm 24.1 18.9 12.7 49 6.6 W 32 39 17 21 1011.2 1010.4 0.0
21/12:30pm 23.3 18.6 13.2 53 5.9 W 30 39 16 21 1011.7 1010.9 0.0
21/12:00pm 22.3 18.5 13.6 58 5.1 WSW 26 35 14 19 1011.9 1011.1 0.0
21/11:30am 23.2 20.6 13.9 56 5.5 W 20 32 11 17 1012.1 1011.3 0.0
21/11:00am 22.1 20.8 15.7 67 3.9 W 17 22 9 12 1012.6 1011.8 0.0
21/10:30am 17.9 17.2 16.4 91 0.9 W 15 20 8 11 1013.2 1012.4 0.0
21/10:00am 18.4 15.1 15.1 81 1.9 SW 26 33 14 18 1013.2 1012.4 0.0
21/09:30am 19.3 15.1 13.5 69 3.3 SW 28 33 15 18 1012.9 1012.1 0.0
21/09:00am 21.2 17.9 12.9 59 4.8 W 22 30 12 16 1012.6 1011.8 0.0
21/08:30am 20.1 16.4 12.6 62 4.3 W 24 33 13 18 1012.9 1012.1 0.0
21/08:00am 19.6 16.4 13.1 66 3.7 WNW 22 32 12 17 1012.7 1011.9 0.0
21/07:30am 18.6 15.7 13.0 70 3.2 WNW 20 28 11 15 1012.7 1011.9 0.0
21/07:00am 18.1 15.4 13.6 75 2.6 NW 20 26 11 14 1012.6 1011.8 0.0
21/06:30am 16.7 14.1 13.2 80 2.0 NW 19 26 10 14 1012.6 1011.8 0.0
21/06:00am 15.7 13.4 13.0 84 1.5 NNW 17 20 9 11 1012.4 1011.6 0.0
21/05:30am 14.5 12.9 12.7 89 1.0 NNW 13 17 7 9 1012.1 1011.3 0.0
21/05:00am 14.4 11.9 12.4 88 1.1 NW 17 20 9 11 1012.0 1011.2 0.0
21/04:30am 15.2 12.4 12.7 85 1.4 NW 19 24 10 13 1011.8 1011.0 0.0
21/04:00am 14.9 12.9 12.6 86 1.3 NNW 15 19 8 10 1011.5 1010.7 0.0
21/03:30am 14.3 12.6 12.3 88 1.1 NW 13 17 7 9 1011.5 1010.7 0.0
21/03:00am 13.9 12.4 11.8 87 1.1 NNW 11 15 6 8 1011.4 1010.6 0.0
21/02:30am 14.1 12.6 12.0 87 1.1 WNW 11 13 6 7 1011.4 1010.6 0.0
21/02:00am 14.5 12.6 11.8 84 1.5 WNW 13 17 7 9 1011.5 1010.7 0.0
21/01:30am 15.2 13.8 12.1 82 1.7 NNW 11 15 6 8 1011.9 1011.1 0.0
21/01:00am 15.3 13.6 12.4 83 1.6 WNW 13 17 7 9 1012.3 1011.5 0.0
21/12:30am 13.7 12.1 11.4 86 1.2 W 11 15 6 8 1012.6 1011.8 0.0
21/12:00am 13.6 11.4 10.9 84 1.4 WNW 13 17 7 9 1012.9 1012.1 0.0
 
Date/Time
WST
Temp
°C
App
Temp
°C
Dew
Point
Rel
Hum
%
Delta-T
°C
Wind Press
QNH
hPa
Press
MSL
hPa
Rain
since 9 am
mm
Dir
 
Spd
km/h
Gust
km/h
Spd
kts
Gust
kts
20/11:30pm 13.6 11.3 10.4 81 1.7 WNW 13 15 7 8 1013.0 1012.2 0.0
20/11:00pm 14.7 12.4 10.5 76 2.2 W 13 15 7 8 1013.3 1012.5 0.0
20/10:30pm 16.0 13.1 11.0 72 2.7 W 17 22 9 12 1013.4 1012.6 0.0
20/10:00pm 16.5 14.0 11.2 71 2.9 W 15 20 8 11 1013.7 1013.0 0.0
20/09:30pm 17.0 14.2 11.3 69 3.1 W 17 20 9 11 1013.8 1013.1 0.0
20/09:00pm 17.4 14.1 11.0 66 3.5 W 19 26 10 14 1013.8 1013.1 0.0
20/08:30pm 17.5 14.6 10.9 65 3.6 W 17 22 9 12 1013.6 1012.9 0.0
20/08:00pm 18.3 13.7 11.1 63 3.9 WSW 26 30 14 16 1013.3 1012.5 0.0
20/07:30pm 19.1 14.2 11.2 60 4.4 WSW 28 35 15 19 1013.0 1012.2 0.0
20/07:00pm 20.2 16.1 11.4 57 4.9 WSW 24 35 13 19 1012.5 1011.7 0.0
20/06:30pm 20.8 15.1 11.7 56 5.1 WSW 33 41 18 22 1012.2 1011.4 0.0
20/06:00pm 22.4 16.9 11.8 51 6.0 W 32 43 17 23 1011.7 1010.9 0.0
20/05:30pm 23.3 18.0 12.6 51 6.2 W 32 43 17 23 1011.4 1010.6 0.0
20/05:00pm 23.9 17.6 11.2 44 7.2 W 35 44 19 24 1011.3 1010.5 0.0
20/04:30pm 24.7 18.5 12.6 47 7.0 WSW 37 50 20 27 1011.4 1010.6 0.0
20/04:00pm 26.1 19.3 9.4 35 9.3 W 35 54 19 29 1011.3 1010.5 0.0
20/03:30pm 27.3 20.6 9.6 33 9.9 W 35 54 19 29 1011.2 1010.4 0.0
20/03:11pm 27.4 20.9 8.8 31 10.3 W 33 54 18 29 1011.2 1010.4 0.0
20/03:00pm 27.5 21.3 9.3 32 10.1 W 32 44 17 24 1011.4 1010.6 0.0
20/02:30pm 27.5 20.8 9.8 33 9.9 W 35 56 19 30 1011.5 1010.7 0.0
20/02:22pm 27.7 21.2 10.4 34 9.8 W 35 54 19 29 1011.6 1010.8 0.0
20/02:00pm 27.3 21.2 10.5 35 9.5 W 33 50 18 27 1011.6 1010.8 0.0
20/01:38pm 27.2 21.1 10.4 35 9.5 W 33 52 18 28 1011.9 1011.1 0.0
20/01:30pm 27.0 20.3 9.8 34 9.6 W 35 46 19 25 1012.0 1011.2 0.0
20/01:15pm 27.3 20.0 10.1 34 9.7 WNW 39 46 21 25 1012.2 1011.4 0.0
20/01:00pm 27.3 20.5 10.5 35 9.5 W 37 52 20 28 1012.6 1011.8 0.0
20/12:52pm 27.0 21.2 10.7 36 9.3 W 32 50 17 27 1012.6 1011.8 0.0
20/12:30pm 26.1 19.5 9.9 36 9.1 WNW 35 48 19 26 1012.8 1012.0 0.0
20/12:03pm 26.7 21.8 11.2 38 8.9 W 28 46 15 25 1013.1 1012.3 0.0
20/12:00pm 25.8 20.3 10.4 38 8.7 W 30 44 16 24 1013.2 1012.4 0.0
20/11:34am 25.6 20.0 10.2 38 8.6 W 30 50 16 27 1013.4 1012.6 0.0
20/11:30am 25.0 19.5 10.5 40 8.1 W 30 41 16 22 1013.5 1012.8 0.0
20/11:20am 25.9 20.9 10.9 39 8.5 W 28 46 15 25 1013.5 1012.8 0.0
20/11:00am 26.0 20.3 11.0 39 8.5 WNW 32 44 17 24 1013.8 1013.1 0.0
20/10:30am 24.7 19.5 10.2 40 8.1 W 28 44 15 24 1014.3 1013.6 0.0
20/10:00am 24.2 18.9 9.8 40 8.0 WNW 28 39 15 21 1014.5 1013.7 0.0
20/09:30am 24.4 20.0 10.3 41 7.9 WNW 24 43 13 23 1014.6 1013.8 0.0
20/09:00am 22.4 18.4 9.2 43 7.1 WNW 20 30 11 16 1014.8 1014.0 0.0
20/08:30am 21.3 18.9 9.9 48 6.2 NNW 13 19 7 10 1014.9 1014.1 0.0
20/08:00am 20.5 18.5 10.0 51 5.7 NNW 11 19 6 10 1014.9 1014.1 0.0
20/07:30am 18.6 17.2 10.9 61 4.2 NW 9 13 5 7 1014.9 1014.1 0.0
20/07:00am 16.6 15.7 10.5 67 3.3 NW 6 9 3 5 1015.0 1014.2 0.0
20/06:30am 14.3 14.3 9.9 75 2.3 CALM 0 6 0 3 1014.7 1013.9 0.0
20/06:00am 12.6 12.7 10.1 85 1.3 CALM 0 0 0 0 1014.1 1013.4 0.0
20/05:30am 10.0 9.6 8.4 90 0.8 CALM 0 4 0 2 1013.9 1013.2 0.0
20/05:00am 8.1 5.6 6.6 90 0.7 NNE 9 9 5 5 1013.7 1013.0 0.0
20/04:30am 8.3 6.1 6.4 88 0.9 ENE 7 9 4 5 1013.6 1012.9 0.0
20/04:00am 9.5 7.7 7.8 89 0.8 ENE 7 7 4 4 1013.8 1013.1 0.0
20/03:30am 9.7 9.2 7.8 88 0.9 CALM 0 0 0 0 1014.2 1013.5 0.0
20/03:00am 10.3 9.8 7.7 84 1.3 CALM 0 0 0 0 1014.3 1013.6 0.0
20/02:30am 10.6 10.1 7.8 83 1.4 CALM 0 0 0 0 1014.5 1013.7 0.0
20/02:00am 11.5 9.9 8.2 80 1.6 NW 6 6 3 3 1014.8 1014.0 0.0
20/01:30am 12.1 10.0 8.4 78 1.9 WNW 9 9 5 5 1015.3 1014.5 0.0
20/01:00am 13.0 10.3 8.9 76 2.1 W 13 17 7 9 1015.6 1014.8 0.0
20/12:30am 12.9 10.5 8.8 76 2.1 W 11 13 6 7 1016.0 1015.2 0.0
20/12:00am 13.2 10.4 8.7 74 2.3 W 13 17 7 9 1016.1 1015.3 0.0
 
Date/Time
WST
Temp
°C
App
Temp
°C
Dew
Point
Rel
Hum
%
Delta-T
°C
Wind Press
QNH
hPa
Press
MSL
hPa
Rain
since 9 am
mm
Dir
 
Spd
km/h
Gust
km/h
Spd
kts
Gust
kts
19/11:30pm 13.1 11.5 8.6 74 2.3 NW 7 11 4 6 1016.2 1015.4 0.0
19/11:00pm 14.1 12.1 8.7 70 2.8 W 9 11 5 6 1016.2 1015.4 0.0
19/10:30pm 15.7 13.4 9.1 65 3.4 WSW 11 17 6 9 1016.5 1015.7 0.0
19/10:00pm 16.1 13.8 9.1 63 3.6 W 11 13 6 7 1016.7 1015.9 0.0
19/09:30pm 17.4 14.1 9.6 60 4.1 WSW 17 22 9 12 1016.7 1015.9 0.0
19/09:00pm 17.8 14.5 9.4 58 4.4 WSW 17 20 9 11 1016.5 1015.7 0.0
19/08:30pm 18.9 14.7 9.7 55 4.9 WSW 22 30 12 16 1016.2 1015.4 0.0
19/08:00pm 19.3 15.4 9.5 53 5.2 W 20 26 11 14 1015.7 1014.9 0.0
19/07:30pm 20.1 16.1 9.1 49 5.9 WSW 20 26 11 14 1015.3 1014.5 0.0
19/07:00pm 21.0 16.3 9.3 47 6.3 WSW 24 30 13 16 1014.8 1014.0 0.0
19/06:30pm 22.1 15.6 8.9 43 7.1 WSW 33 41 18 22 1014.3 1013.6 0.0
19/06:00pm 23.4 16.9 9.0 40 7.8 WSW 33 43 18 23 1013.7 1013.0 0.0
19/05:30pm 24.8 19.3 9.1 37 8.6 WSW 28 39 15 21 1013.2 1012.4 0.0
19/05:07pm 25.4 19.4 8.8 35 9.1 WSW 30 50 16 27 1012.9 1012.1 0.0
19/05:00pm 25.6 19.7 9.0 35 9.1 WSW 30 41 16 22 1012.9 1012.1 0.0
19/04:30pm 26.0 20.7 8.5 33 9.5 WSW 26 44 14 24 1012.6 1011.8 0.0
19/04:00pm 26.2 21.1 7.7 31 10.0 WSW 24 35 13 19 1012.4 1011.6 0.0
19/03:30pm 26.4 22.8 6.9 29 10.4 WSW 15 20 8 11 1012.4 1011.6 0.0
19/03:00pm 27.0 24.5 6.4 27 10.9 NW 9 11 5 6 1012.2 1011.4 0.0
19/02:30pm 26.7 22.0 6.2 27 10.8 WSW 20 26 11 14 1012.5 1011.7 0.0
19/02:00pm 26.6 21.9 6.1 27 10.8 SSW 20 28 11 15 1012.6 1011.8 0.0
19/01:30pm 27.3 23.8 5.6 25 11.3 W 13 17 7 9 1012.7 1011.9 0.0
19/01:00pm 27.6 23.0 6.4 26 11.3 SSW 20 26 11 14 1012.8 1012.0 0.0
19/12:30pm 26.7 23.8 8.2 31 10.1 SSE 13 20 7 11 1013.1 1012.3 0.0
19/12:00pm 25.3 22.6 7.4 32 9.5 SW 11 22 6 12 1013.3 1012.5 0.0
19/11:30am 24.5 22.3 8.0 35 8.8 W 9 19 5 10 1013.7 1013.0 0.0
19/11:00am 24.8 21.8 7.9 34 9.1 WSW 13 22 7 12 1014.2 1013.5 0.0
19/10:30am 23.4 20.4 7.9 37 8.2 SW 13 24 7 13 1014.9 1014.1 0.0
19/10:00am 22.4 20.3 8.1 40 7.6 SSW 9 19 5 10 1015.2 1014.4 0.0
19/09:30am 22.7 20.8 9.1 42 7.4 E 9 15 5 8 1015.3 1014.5 0.0
19/09:00am 21.8 17.9 8.7 43 7.0 SSE 19 22 10 12 1015.4 1014.6 0.0
19/08:30am 20.7 17.1 8.4 45 6.5 SSW 17 24 9 13 1015.4 1014.6 0.0
19/08:00am 20.0 17.2 8.7 48 6.0 SSE 13 20 7 11 1015.3 1014.5 0.0
19/07:30am 18.0 14.5 8.6 54 4.9 S 17 24 9 13 1015.2 1014.4 0.0
19/07:00am 17.7 13.6 8.6 55 4.7 S 20 26 11 14 1015.1 1014.3 0.0
19/06:30am 17.2 13.5 8.1 55 4.7 S 17 22 9 12 1014.7 1013.9 0.0
19/06:00am 17.1 13.0 8.0 55 4.7 S 19 24 10 13 1014.2 1013.5 0.0
19/05:30am 17.0 13.0 8.4 57 4.4 S 19 24 10 13 1013.9 1013.2 0.0
19/05:00am 16.8 13.7 9.0 60 4.1 SSW 15 19 8 10 1013.9 1013.2 0.0
19/04:30am 16.2 14.8 10.9 71 2.9 WSW 9 13 5 7 1013.5 1012.8 0.0
19/04:00am 15.9 14.3 11.5 75 2.4 W 11 15 6 8 1013.0 1012.2 0.0
19/03:30am 15.5 13.9 11.5 77 2.2 W 11 15 6 8 1012.7 1011.9 0.0
19/03:00am 15.6 14.0 11.6 77 2.2 W 11 15 6 8 1012.7 1011.9 0.0
19/02:30am 15.9 14.4 11.9 77 2.2 W 11 17 6 9 1012.6 1011.8 0.0
19/02:00am 15.8 14.3 11.8 77 2.2 W 11 15 6 8 1012.9 1012.1 0.0

Other Formats:

Comma delimited format used in spreadsheet applications
http://www.bom.gov.au/fwo/IDW60801/IDW60801.95625.axf

JavaScript Object Notation format (JSON) in row-major order
http://www.bom.gov.au/fwo/IDW60801/IDW60801.95625.json